Time;durP1;ratioP1;P1;durP2;ratioP2;P2;SDS_P1;SDS_P2;PMS_P1;PMS_P2;Temp;Humidity;BMP_temperature;BMP_pressure;BME280_temperature;BME280_humidity;BME280_pressure;Samples;Min_cycle;Max_cycle;Signal;HPM_P1;HPM_P2
2022/03/30 00:00:31;;;;;;;38.97;35.30;;;11.10;65.90;;;;;;5032099;28;20468;-74
2022/03/30 00:05:27;;;;;;;37.67;34.43;;;11.30;65.80;;;;;;5050400;28;20504;-75
2022/03/30 00:07:54;;;;;;;38.08;34.45;;;11.30;65.50;;;;;;5052418;28;20949;-74
2022/03/30 00:10:22;;;;;;;38.73;35.43;;;11.30;65.60;;;;;;5052186;28;20201;-74
2022/03/30 00:12:51;;;;;;;36.75;33.55;;;11.20;66.00;;;;;;5052411;28;20471;-74
2022/03/30 00:15:18;;;;;;;39.67;36.17;;;11.10;66.20;;;;;;5052337;28;20203;-74
2022/03/30 00:17:45;;;;;;;37.50;33.93;;;11.00;66.60;;;;;;5052230;28;20510;-75
2022/03/30 00:20:12;;;;;;;35.87;33.07;;;11.00;66.80;;;;;;5052172;28;20458;-74
2022/03/30 00:22:41;;;;;;;37.90;34.80;;;11.10;66.70;;;;;;5052302;28;20481;-72
2022/03/30 00:25:10;;;;;;;37.73;34.27;;;11.20;66.60;;;;;;5052170;28;20457;-72
2022/03/30 00:27:37;;;;;;;39.20;35.43;;;11.20;66.40;;;;;;5052235;28;20458;-72
2022/03/30 00:30:06;;;;;;;39.70;36.23;;;11.20;66.50;;;;;;5052037;28;20450;-72
2022/03/30 00:32:33;;;;;;;37.57;34.27;;;11.20;66.50;;;;;;5052128;28;20900;-72
2022/03/30 00:35:00;;;;;;;37.90;34.17;;;11.30;66.20;;;;;;5052143;28;20453;-72
2022/03/30 00:37:27;;;;;;;38.23;34.47;;;11.30;66.20;;;;;;5051973;28;20857;-72
2022/03/30 00:39:55;;;;;;;39.03;35.53;;;11.20;66.60;;;;;;5051918;28;20614;-72
2022/03/30 00:42:24;;;;;;;40.00;36.30;;;11.20;66.70;;;;;;5052196;28;20302;-72
2022/03/30 00:44:52;;;;;;;37.40;34.10;;;11.30;66.60;;;;;;5052052;28;20888;-72
2022/03/30 00:47:20;;;;;;;39.53;36.37;;;11.20;66.80;;;;;;5051958;28;20518;-72
2022/03/30 00:49:48;;;;;;;39.90;36.33;;;11.20;66.90;;;;;;5051931;28;20487;-74
2022/03/30 00:52:16;;;;;;;40.13;36.67;;;11.30;66.70;;;;;;5053971;28;20563;-74
2022/03/30 00:54:44;;;;;;;38.70;34.63;;;11.30;66.70;;;;;;5056064;28;20847;-75
2022/03/30 00:57:15;;;;;;;38.67;35.20;;;11.30;66.70;;;;;;5055689;28;20517;-74
2022/03/30 00:59:42;;;;;;;37.73;34.53;;;11.40;66.60;;;;;;5055457;28;20490;-75
2022/03/30 01:02:10;;;;;;;39.30;36.00;;;11.30;66.80;;;;;;5055850;28;20476;-75
2022/03/30 01:04:37;;;;;;;37.40;34.23;;;11.30;66.70;;;;;;5055368;28;20487;-75
2022/03/30 01:07:05;;;;;;;38.07;34.40;;;11.40;66.60;;;;;;5055819;28;20525;-75
2022/03/30 01:09:32;;;;;;;38.70;35.03;;;11.30;67.00;;;;;;5055350;28;20997;-75
2022/03/30 01:11:59;;;;;;;37.27;34.27;;;11.20;67.30;;;;;;5055448;28;20472;-74
2022/03/30 01:14:28;;;;;;;36.63;33.53;;;11.30;67.20;;;;;;5055488;28;20542;-74
2022/03/30 01:16:55;;;;;;;38.53;34.77;;;11.30;67.20;;;;;;5055477;28;20453;-74
2022/03/30 01:19:22;;;;;;;37.87;34.77;;;11.30;67.40;;;;;;5055452;28;20458;-74
2022/03/30 01:21:50;;;;;;;39.80;36.40;;;11.30;67.60;;;;;;5055369;28;20963;-74
2022/03/30 01:24:17;;;;;;;38.67;35.67;;;11.30;67.80;;;;;;5055559;28;20475;-74
2022/03/30 01:26:44;;;;;;;38.40;35.20;;;11.40;67.60;;;;;;5055642;28;20496;-75
2022/03/30 01:34:41;;;;;;;38.27;35.10;;;11.40;67.90;;;;;;5055726;28;20510;-74
2022/03/30 01:37:12;;;;;;;37.97;35.00;;;11.60;67.50;;;;;;5055385;28;20450;-74
2022/03/30 01:39:39;;;;;;;38.37;34.77;;;11.70;67.30;;;;;;5055367;28;20440;-74
2022/03/30 01:42:07;;;;;;;37.13;33.70;;;11.60;67.50;;;;;;5055455;28;20559;-74
2022/03/30 01:44:34;;;;;;;38.73;35.50;;;11.50;67.70;;;;;;5055019;28;20453;-74
2022/03/30 01:47:01;;;;;;;39.67;36.03;;;11.50;67.70;;;;;;5054905;28;20453;-74
2022/03/30 01:49:28;;;;;;;37.73;34.57;;;11.60;67.70;;;;;;5054741;28;20469;-72
2022/03/30 01:51:58;;;;;;;37.70;34.60;;;11.70;67.30;;;;;;5054858;28;20541;-74
2022/03/30 01:54:28;;;;;;;40.00;35.40;;;11.70;67.30;;;;;;5054742;28;21017;-75
2022/03/30 01:56:56;;;;;;;39.43;35.97;;;11.70;67.30;;;;;;5054786;28;20455;-75
2022/03/30 01:59:24;;;;;;;39.10;35.33;;;11.70;67.50;;;;;;5054327;28;20545;-74
2022/03/30 02:01:52;;;;;;;38.57;34.97;;;11.70;67.80;;;;;;5054622;28;20461;-75
2022/03/30 02:04:18;;;;;;;36.90;33.90;;;11.70;67.30;;;;;;5054213;28;20462;-74
2022/03/30 02:06:45;;;;;;;39.57;35.83;;;11.70;67.30;;;;;;5054573;28;20462;-75
2022/03/30 02:09:14;;;;;;;39.67;36.10;;;11.60;67.50;;;;;;5054346;28;20477;-75
2022/03/30 02:11:42;;;;;;;40.70;36.87;;;11.60;67.50;;;;;;5054365;28;20470;-75
2022/03/30 02:14:10;;;;;;;38.40;35.07;;;11.70;67.30;;;;;;5054350;28;20462;-75
2022/03/30 02:16:37;;;;;;;38.23;34.87;;;11.70;67.30;;;;;;5054301;28;20450;-72
2022/03/30 02:19:04;;;;;;;38.43;34.93;;;11.80;67.30;;;;;;5054075;28;20477;-72
2022/03/30 02:21:31;;;;;;;37.20;34.13;;;11.80;67.60;;;;;;5054045;28;20895;-72
2022/03/30 02:23:58;;;;;;;39.50;36.10;;;11.80;67.60;;;;;;5054270;28;20898;-72
2022/03/30 02:26:27;;;;;;;41.90;38.60;;;11.90;67.60;;;;;;5054130;28;20589;-72
2022/03/30 02:28:56;;;;;;;37.93;34.50;;;11.90;67.60;;;;;;5054007;28;20955;-74
2022/03/30 02:31:23;;;;;;;37.77;34.80;;;11.90;67.60;;;;;;5053936;28;20842;-75
2022/03/30 02:33:51;;;;;;;40.00;36.30;;;11.90;67.50;;;;;;5053988;28;20497;-75
2022/03/30 02:36:18;;;;;;;40.50;36.50;;;11.90;67.70;;;;;;5053937;28;20545;-74
2022/03/30 02:38:45;;;;;;;39.23;35.53;;;11.80;68.10;;;;;;5053769;28;20568;-75
2022/03/30 02:41:12;;;;;;;41.03;37.20;;;11.90;68.10;;;;;;5053645;28;20447;-75
2022/03/30 02:43:40;;;;;;;39.00;35.40;;;11.90;68.10;;;;;;5053802;28;20556;-75
2022/03/30 02:46:08;;;;;;;38.73;35.23;;;11.90;68.10;;;;;;5053812;28;20455;-74
2022/03/30 02:48:37;;;;;;;40.80;37.37;;;11.90;68.10;;;;;;5053732;28;20538;-75
2022/03/30 02:51:06;;;;;;;38.73;35.00;;;11.90;67.90;;;;;;5053555;28;20452;-74
2022/03/30 02:53:34;;;;;;;39.70;36.17;;;11.90;67.90;;;;;;5053531;28;20917;-75
2022/03/30 02:56:02;;;;;;;38.33;34.77;;;11.90;68.20;;;;;;5053486;28;20458;-74
2022/03/30 02:58:29;;;;;;;39.87;36.37;;;11.80;68.50;;;;;;5053375;28;20481;-75
2022/03/30 03:00:56;;;;;;;39.57;36.07;;;11.80;68.80;;;;;;5053031;28;20541;-75
2022/03/30 03:03:25;;;;;;;37.13;33.90;;;11.60;69.00;;;;;;5053288;28;20515;-75
2022/03/30 03:05:52;;;;;;;38.50;35.17;;;11.60;69.00;;;;;;5053245;28;20454;-75
2022/03/30 03:08:19;;;;;;;39.43;35.93;;;11.60;69.00;;;;;;5053139;28;20457;-74
2022/03/30 03:10:48;;;;;;;40.50;36.77;;;11.70;69.00;;;;;;5053078;28;20447;-74
2022/03/30 03:13:16;;;;;;;39.37;35.73;;;11.60;69.10;;;;;;5053308;28;20566;-75
2022/03/30 03:15:45;;;;;;;39.53;35.90;;;11.60;69.10;;;;;;5052975;28;20493;-74
2022/03/30 03:18:13;;;;;;;38.83;35.33;;;11.70;69.30;;;;;;5053109;28;20504;-74
2022/03/30 03:20:43;;;;;;;38.07;34.93;;;11.60;69.40;;;;;;5053028;28;20462;-74
2022/03/30 03:23:11;;;;;;;39.60;35.83;;;11.60;69.40;;;;;;5052972;28;20481;-74
2022/03/30 03:25:39;;;;;;;40.63;37.03;;;11.60;69.40;;;;;;5053024;28;20458;-75
2022/03/30 03:28:07;;;;;;;37.93;34.63;;;11.70;69.30;;;;;;5052804;28;20855;-75
2022/03/30 03:30:34;;;;;;;37.53;34.43;;;11.60;69.30;;;;;;5052511;28;20986;-75
2022/03/30 03:33:02;;;;;;;40.77;36.67;;;11.50;69.30;;;;;;5053010;28;20475;-75
2022/03/30 03:35:29;;;;;;;40.37;36.53;;;11.50;69.40;;;;;;5052754;28;20453;-74
2022/03/30 03:37:58;;;;;;;39.57;36.10;;;11.60;69.20;;;;;;5052688;28;20483;-74
2022/03/30 03:40:25;;;;;;;38.67;35.17;;;11.80;68.50;;;;;;5052621;28;20885;-75
2022/03/30 03:42:52;;;;;;;39.27;35.57;;;11.70;68.50;;;;;;5052644;28;21003;-74
2022/03/30 03:45:19;;;;;;;40.00;36.30;;;11.70;68.40;;;;;;5052730;28;20543;-75
2022/03/30 03:47:47;;;;;;;40.60;35.67;;;11.70;68.40;;;;;;5052614;28;20462;-74
2022/03/30 03:50:15;;;;;;;39.30;35.73;;;11.80;68.10;;;;;;5052336;28;20943;-75
2022/03/30 03:52:42;;;;;;;38.77;35.47;;;11.80;67.80;;;;;;5052699;28;20570;-74
2022/03/30 03:55:12;;;;;;;38.43;35.30;;;11.70;68.20;;;;;;5052564;28;20459;-74
2022/03/30 03:57:39;;;;;;;39.57;35.70;;;11.70;68.40;;;;;;5052491;28;20451;-75
2022/03/30 04:00:08;;;;;;;37.87;34.40;;;11.80;68.20;;;;;;5051980;28;20572;-74
2022/03/30 04:02:35;;;;;;;39.87;35.90;;;11.80;68.20;;;;;;5052310;28;20474;-74
2022/03/30 04:05:02;;;;;;;39.10;34.93;;;11.70;68.40;;;;;;5051492;28;20475;-74
2022/03/30 04:07:29;;;;;;;41.20;37.30;;;11.70;68.80;;;;;;5051633;28;20534;-75
2022/03/30 04:09:56;;;;;;;42.83;37.57;;;11.70;68.90;;;;;;5051485;28;20480;-74
2022/03/30 04:12:24;;;;;;;39.53;36.30;;;11.70;69.00;;;;;;5051885;28;20478;-74
2022/03/30 04:14:51;;;;;;;41.40;38.00;;;11.70;69.00;;;;;;5051516;28;20535;-74
2022/03/30 04:17:21;;;;;;;40.90;37.43;;;11.70;69.20;;;;;;5051404;28;20537;-74
2022/03/30 04:19:47;;;;;;;41.67;37.37;;;11.70;69.30;;;;;;5051219;28;20532;-75
2022/03/30 04:22:14;;;;;;;40.43;36.83;;;11.70;69.50;;;;;;5051404;28;20561;-74
2022/03/30 04:24:41;;;;;;;38.30;34.50;;;11.70;69.30;;;;;;5051378;28;20451;-74
2022/03/30 04:27:08;;;;;;;40.30;36.10;;;11.70;69.50;;;;;;5053037;28;20451;-74
2022/03/30 04:29:36;;;;;;;39.70;36.37;;;11.70;69.60;;;;;;5054870;28;20456;-74
2022/03/30 04:32:04;;;;;;;38.37;35.27;;;11.70;69.60;;;;;;5054911;28;20478;-74
2022/03/30 04:34:30;;;;;;;40.90;37.67;;;11.70;69.50;;;;;;5054808;28;20536;-74
2022/03/30 04:36:57;;;;;;;39.93;36.43;;;11.90;69.00;;;;;;5054870;28;20452;-74
2022/03/30 04:39:24;;;;;;;38.20;34.90;;;12.00;69.20;;;;;;5054590;28;20475;-75
2022/03/30 04:41:51;;;;;;;39.23;36.00;;;12.00;69.40;;;;;;5054771;28;20529;-75
2022/03/30 04:44:20;;;;;;;41.07;36.97;;;12.00;70.00;;;;;;5054732;28;20919;-75
2022/03/30 04:46:48;;;;;;;40.33;35.17;;;12.00;70.30;;;;;;5054799;28;20462;-75
2022/03/30 04:49:15;;;;;;;38.63;34.93;;;12.00;70.90;;;;;;5054747;28;20541;-74
2022/03/30 04:51:42;;;;;;;38.27;34.90;;;12.10;71.40;;;;;;5054558;28;20451;-75
2022/03/30 04:54:09;;;;;;;38.17;34.97;;;12.10;72.50;;;;;;5054627;28;20962;-74
2022/03/30 04:56:36;;;;;;;37.30;34.20;;;12.10;72.70;;;;;;5054718;28;20451;-75
2022/03/30 04:59:03;;;;;;;38.33;34.90;;;12.00;73.50;;;;;;5054183;28;20482;-75
2022/03/30 05:01:30;;;;;;;39.73;35.80;;;12.10;73.90;;;;;;5044552;28;20471;-75
2022/03/30 05:03:58;;;;;;;38.90;34.93;;;12.00;74.50;;;;;;5016012;28;1111344;-75
2022/03/30 05:06:25;;;;;;;38.37;34.57;;;12.00;75.20;;;;;;5055546;28;20595;-75
2022/03/30 05:08:52;;;;;;;38.63;35.33;;;12.00;76.30;;;;;;5055513;28;20933;-75
2022/03/30 05:11:19;;;;;;;38.03;34.30;;;11.90;76.90;;;;;;5055280;28;20948;-75
2022/03/30 05:13:46;;;;;;;39.10;35.00;;;11.90;77.10;;;;;;5055572;28;20521;-75
2022/03/30 05:16:14;;;;;;;39.70;35.63;;;11.80;78.50;;;;;;5055458;28;20453;-75
2022/03/30 05:18:41;;;;;;;39.60;36.30;;;11.80;79.00;;;;;;5055379;28;20953;-75
2022/03/30 05:21:09;;;;;;;38.30;34.40;;;11.70;79.50;;;;;;5055179;28;20456;-74
2022/03/30 05:23:36;;;;;;;37.27;33.87;;;11.60;80.00;;;;;;5055201;28;20473;-75
2022/03/30 05:26:03;;;;;;;40.50;36.30;;;11.50;81.10;;;;;;5055356;28;20462;-74
2022/03/30 05:28:30;;;;;;;38.10;34.30;;;11.50;81.60;;;;;;5055150;28;20776;-74
2022/03/30 05:30:57;;;;;;;41.53;37.33;;;11.40;81.90;;;;;;5055183;28;20454;-74
2022/03/30 05:33:24;;;;;;;38.13;34.70;;;11.30;82.70;;;;;;5055155;28;20481;-74
2022/03/30 05:35:53;;;;;;;38.90;35.40;;;11.40;82.80;;;;;;5055043;28;20537;-74
2022/03/30 05:38:21;;;;;;;36.87;33.57;;;11.30;83.10;;;;;;5054507;28;20974;-74
2022/03/30 05:40:48;;;;;;;37.77;34.43;;;11.30;83.10;;;;;;5054873;28;20535;-74
2022/03/30 05:43:15;;;;;;;40.53;36.70;;;11.30;83.90;;;;;;5054993;28;20478;-74
2022/03/30 05:45:42;;;;;;;38.50;35.50;;;11.20;85.30;;;;;;5055055;28;20447;-74
2022/03/30 05:48:09;;;;;;;39.20;35.20;;;11.20;84.80;;;;;;5054826;28;20449;-74
2022/03/30 05:50:39;;;;;;;59.23;40.80;;;11.20;84.40;;;;;;5054727;28;20785;-74
2022/03/30 05:53:06;;;;;;;40.00;36.03;;;11.20;84.90;;;;;;5054738;28;20963;-74
2022/03/30 05:55:34;;;;;;;38.67;34.63;;;11.10;85.10;;;;;;5054653;28;20459;-74
2022/03/30 05:58:02;;;;;;;37.20;33.77;;;11.20;85.20;;;;;;5054738;28;20882;-74
2022/03/30 06:00:29;;;;;;;40.47;36.50;;;11.20;85.20;;;;;;5054091;28;20490;-74
2022/03/30 06:02:56;;;;;;;42.73;35.00;;;11.20;85.20;;;;;;5054824;28;20561;-74
2022/03/30 06:05:23;;;;;;;38.00;34.30;;;11.10;85.60;;;;;;5054272;28;20819;-74
2022/03/30 06:07:50;;;;;;;65.77;42.27;;;11.10;85.80;;;;;;5054490;28;20460;-75
2022/03/30 06:10:20;;;;;;;39.40;35.63;;;11.00;86.20;;;;;;5054224;28;20475;-74
2022/03/30 06:12:48;;;;;;;69.57;44.63;;;10.90;86.90;;;;;;5054322;28;20568;-74
2022/03/30 06:15:15;;;;;;;43.50;38.67;;;10.90;86.90;;;;;;5054351;28;20933;-74
2022/03/30 06:17:42;;;;;;;41.77;37.47;;;10.90;87.00;;;;;;5054412;28;20457;-74
2022/03/30 06:20:11;;;;;;;38.20;34.27;;;10.90;86.90;;;;;;5053970;28;21073;-75
2022/03/30 06:22:39;;;;;;;38.97;35.03;;;10.90;86.90;;;;;;5054314;28;20566;-75
2022/03/30 06:25:07;;;;;;;37.67;34.13;;;11.00;86.80;;;;;;5054205;28;20457;-74
2022/03/30 06:27:34;;;;;;;39.53;35.87;;;11.00;86.80;;;;;;5054203;28;20461;-74
2022/03/30 06:30:02;;;;;;;39.83;34.60;;;11.00;86.80;;;;;;5054009;28;20454;-74
2022/03/30 06:32:30;;;;;;;38.87;35.20;;;11.10;86.60;;;;;;5053961;28;20510;-74
2022/03/30 06:34:57;;;;;;;41.63;36.00;;;11.10;86.30;;;;;;5053884;28;20819;-74
2022/03/30 06:37:24;;;;;;;39.37;36.07;;;11.00;86.20;;;;;;5053944;28;20968;-74
2022/03/30 06:39:51;;;;;;;38.83;34.87;;;11.00;86.30;;;;;;5053676;28;20575;-74
2022/03/30 06:42:18;;;;;;;41.10;36.80;;;11.10;86.60;;;;;;5053938;28;20472;-74
2022/03/30 06:44:46;;;;;;;39.90;36.07;;;11.10;86.80;;;;;;5053834;28;20896;-74
2022/03/30 06:47:14;;;;;;;41.87;37.57;;;11.10;87.20;;;;;;5053664;28;20464;-74
2022/03/30 06:49:41;;;;;;;60.47;45.40;;;11.20;87.20;;;;;;5052843;28;20530;-74
2022/03/30 06:52:10;;;;;;;57.03;41.80;;;11.00;88.00;;;;;;5053662;28;20485;-74
2022/03/30 06:54:38;;;;;;;40.17;36.03;;;11.00;88.40;;;;;;5053736;28;20556;-74
2022/03/30 06:57:06;;;;;;;41.23;36.77;;;11.00;88.30;;;;;;5053618;28;20546;-74
2022/03/30 06:59:33;;;;;;;39.77;35.93;;;11.00;88.30;;;;;;5053072;28;20487;-74
2022/03/30 07:02:00;;;;;;;40.33;36.17;;;11.10;88.20;;;;;;5053365;28;20511;-74
2022/03/30 07:04:28;;;;;;;39.70;35.50;;;11.20;87.80;;;;;;5053045;28;20553;-74
2022/03/30 07:12:24;;;;;;;41.90;37.70;;;11.10;88.30;;;;;;5053377;28;20506;-75
2022/03/30 07:14:51;;;;;;;39.13;35.07;;;11.10;88.50;;;;;;5053154;28;20958;-74
2022/03/30 07:17:18;;;;;;;43.27;39.10;;;11.20;88.80;;;;;;5053222;28;20460;-74
2022/03/30 07:19:46;;;;;;;41.20;36.57;;;11.30;88.40;;;;;;5053009;28;20512;-74
2022/03/30 07:22:13;;;;;;;40.00;36.00;;;11.40;88.30;;;;;;5053012;28;20518;-74
2022/03/30 07:24:41;;;;;;;40.57;36.60;;;11.50;88.00;;;;;;5053002;28;20455;-74
2022/03/30 07:27:08;;;;;;;42.00;35.97;;;11.60;87.40;;;;;;5052901;28;20451;-74
2022/03/30 07:29:35;;;;;;;38.23;34.53;;;11.70;86.90;;;;;;5053017;28;20459;-75
2022/03/30 07:32:02;;;;;;;49.60;41.50;;;11.80;86.30;;;;;;5052949;28;20479;-74
2022/03/30 07:34:30;;;;;;;40.80;36.70;;;11.80;85.30;;;;;;5052835;28;20947;-74
2022/03/30 07:36:58;;;;;;;64.00;45.80;;;11.70;85.50;;;;;;5052964;28;20453;-75
2022/03/30 07:39:25;;;;;;;40.10;36.10;;;11.60;85.60;;;;;;5052951;28;20580;-74
2022/03/30 07:41:52;;;;;;;48.83;40.23;;;11.80;84.80;;;;;;5052736;28;20454;-75
2022/03/30 07:44:19;;;;;;;39.60;35.60;;;11.70;84.40;;;;;;5052865;28;20961;-75
2022/03/30 07:46:48;;;;;;;39.00;33.70;;;11.70;84.30;;;;;;5052729;28;20461;-74
2022/03/30 07:49:16;;;;;;;45.23;40.83;;;11.80;84.30;;;;;;5052878;28;20450;-74
2022/03/30 07:51:43;;;;;;;39.93;35.77;;;11.80;83.90;;;;;;5052621;28;20447;-75
2022/03/30 07:54:11;;;;;;;55.90;44.50;;;12.00;83.50;;;;;;5052616;28;20462;-74
2022/03/30 07:56:39;;;;;;;40.83;37.17;;;12.00;83.20;;;;;;5052621;28;20457;-74
2022/03/30 07:59:06;;;;;;;39.93;35.97;;;11.90;83.20;;;;;;5052250;28;20481;-76
2022/03/30 08:01:33;;;;;;;106.83;48.77;;;12.00;83.00;;;;;;5052355;28;20463;-75
2022/03/30 08:04:00;;;;;;;54.33;39.47;;;12.00;83.30;;;;;;5052440;28;21015;-75
2022/03/30 08:06:27;;;;;;;59.50;41.40;;;12.10;82.80;;;;;;5052200;28;20767;-75
2022/03/30 08:08:54;;;;;;;38.00;34.17;;;12.00;82.80;;;;;;5052549;28;20912;-75
2022/03/30 08:11:23;;;;;;;38.73;34.90;;;12.10;82.50;;;;;;5052291;28;21007;-75
2022/03/30 08:13:50;;;;;;;38.03;33.90;;;12.20;81.90;;;;;;5052422;28;20497;-74
2022/03/30 08:16:17;;;;;;;38.13;34.10;;;12.20;82.20;;;;;;5052287;28;20458;-75
2022/03/30 08:18:43;;;;;;;38.57;35.33;;;12.10;82.40;;;;;;5052276;28;20451;-75
2022/03/30 08:23:55;;;;;;;38.90;34.87;;;12.10;82.90;;;;;;5052388;28;20508;-75
2022/03/30 08:26:23;;;;;;;35.93;32.87;;;12.20;82.40;;;;;;5052254;28;20848;-75
2022/03/30 08:28:51;;;;;;;38.33;34.40;;;12.20;82.60;;;;;;5052132;28;20630;-75
2022/03/30 08:31:18;;;;;;;40.10;36.00;;;12.20;82.50;;;;;;5052089;28;20443;-75
2022/03/30 08:33:45;;;;;;;39.53;35.47;;;12.20;82.30;;;;;;5052331;28;20471;-75
2022/03/30 08:36:12;;;;;;;39.93;35.00;;;12.30;82.60;;;;;;5052124;28;20454;-75
2022/03/30 08:38:38;;;;;;;38.43;34.93;;;12.30;82.20;;;;;;5052135;28;20956;-75
2022/03/30 08:41:06;;;;;;;38.77;34.90;;;12.30;82.30;;;;;;5051932;28;20568;-75
2022/03/30 08:43:35;;;;;;;36.97;33.40;;;12.30;82.20;;;;;;5051937;28;20476;-75
2022/03/30 08:46:03;;;;;;;38.67;34.90;;;12.30;82.50;;;;;;5052017;28;20457;-75
2022/03/30 08:48:30;;;;;;;35.93;32.60;;;12.20;82.40;;;;;;5051957;28;20456;-75
2022/03/30 08:50:59;;;;;;;36.80;33.43;;;12.10;83.00;;;;;;5051905;28;20535;-75
2022/03/30 08:53:27;;;;;;;36.07;32.77;;;12.10;83.10;;;;;;5051996;28;20479;-75
2022/03/30 08:55:55;;;;;;;37.90;34.47;;;12.00;83.40;;;;;;5052109;28;20537;-75
2022/03/30 08:58:21;;;;;;;37.03;33.70;;;12.10;83.30;;;;;;5051979;28;20483;-75
2022/03/30 09:00:52;;;;;;;38.97;35.40;;;12.10;82.80;;;;;;5051372;28;20483;-75
2022/03/30 09:03:20;;;;;;;37.70;34.10;;;12.20;82.90;;;;;;5051847;28;20485;-75
2022/03/30 09:05:47;;;;;;;38.67;35.00;;;12.20;83.00;;;;;;5051750;28;20450;-75
2022/03/30 09:08:17;;;;;;;39.83;36.03;;;12.20;83.10;;;;;;5051766;28;20461;-75
2022/03/30 09:10:47;;;;;;;38.03;34.07;;;12.20;83.50;;;;;;5051754;28;20813;-75
2022/03/30 09:13:17;;;;;;;37.63;33.70;;;12.10;84.10;;;;;;5053483;28;20475;-75
2022/03/30 09:15:46;;;;;;;39.80;35.67;;;12.20;84.10;;;;;;5055608;28;20459;-75
2022/03/30 09:18:15;;;;;;;37.17;33.77;;;12.20;83.80;;;;;;5055471;28;20955;-75
2022/03/30 09:20:44;;;;;;;36.57;33.20;;;12.20;84.00;;;;;;5055266;28;20479;-75
2022/03/30 09:23:13;;;;;;;36.77;33.07;;;12.30;83.40;;;;;;5055345;28;20506;-75
2022/03/30 09:25:45;;;;;;;35.23;32.07;;;12.30;83.20;;;;;;5055326;28;20880;-75
2022/03/30 09:28:12;;;;;;;36.67;32.13;;;12.30;83.10;;;;;;5055345;28;20454;-75
2022/03/30 09:30:39;;;;;;;33.83;30.83;;;12.40;82.80;;;;;;5055307;28;20454;-74
2022/03/30 09:33:10;;;;;;;36.40;32.90;;;12.40;82.70;;;;;;5055152;28;20471;-75
2022/03/30 09:35:41;;;;;;;38.43;34.23;;;12.40;82.60;;;;;;5055223;28;20454;-75
2022/03/30 09:38:09;;;;;;;36.73;32.80;;;12.30;82.90;;;;;;5055031;28;20447;-75
2022/03/30 09:40:43;;;;;;;37.83;33.47;;;12.30;82.90;;;;;;5054670;28;20825;-75
2022/03/30 09:43:16;;;;;;;35.60;32.37;;;12.40;82.90;;;;;;5054994;28;21051;-75
2022/03/30 09:45:43;;;;;;;37.83;34.33;;;12.40;82.80;;;;;;5055026;28;20491;-75
2022/03/30 09:48:15;;;;;;;35.07;32.17;;;12.50;82.70;;;;;;5054910;28;20458;-75
2022/03/30 09:50:49;;;;;;;38.20;32.70;;;12.60;82.40;;;;;;5054693;28;20982;-75
2022/03/30 09:53:17;;;;;;;36.40;32.70;;;12.70;82.20;;;;;;5054856;28;20478;-75
2022/03/30 09:56:01;;;;;;;36.17;32.83;;;12.70;82.20;;;;;;5054758;28;20863;-75
2022/03/30 09:58:31;;;;;;;37.00;33.00;;;12.80;82.30;;;;;;5054699;28;20971;-75
2022/03/30 10:01:09;;;;;;;34.83;32.03;;;12.80;82.40;;;;;;5054189;28;20935;-75
2022/03/30 10:03:43;;;;;;;35.33;31.80;;;12.90;81.70;;;;;;5054569;28;20487;-75
2022/03/30 10:06:12;;;;;;;36.57;33.57;;;13.00;81.00;;;;;;5054457;28;20463;-75
2022/03/30 10:08:42;;;;;;;37.80;33.83;;;13.10;81.10;;;;;;5054594;28;20452;-75
2022/03/30 10:11:10;;;;;;;39.27;35.10;;;13.20;80.90;;;;;;5054362;28;20448;-75
2022/03/30 10:13:38;;;;;;;37.13;33.83;;;13.40;80.30;;;;;;5054402;28;20885;-75
2022/03/30 10:16:06;;;;;;;37.50;34.00;;;13.60;79.80;;;;;;5054396;28;20469;-75
2022/03/30 10:18:34;;;;;;;35.80;32.07;;;13.70;79.40;;;;;;5054238;28;20478;-75
2022/03/30 10:21:22;;;;;;;35.33;32.17;;;13.80;78.40;;;;;;5054070;28;20514;-75
2022/03/30 10:24:16;;;;;;;34.13;30.83;;;13.90;78.10;;;;;;5053400;28;20480;-75
2022/03/30 10:26:51;;;;;;;34.10;30.53;;;14.00;77.80;;;;;;5054116;28;20460;-75
2022/03/30 10:29:19;;;;;;;35.53;32.33;;;14.10;77.20;;;;;;5053993;28;20497;-75
2022/03/30 10:32:14;;;;;;;40.33;34.80;;;14.20;76.40;;;;;;5054080;28;20451;-75
2022/03/30 10:34:49;;;;;;;34.23;30.83;;;14.40;76.10;;;;;;5054132;28;20448;-75
2022/03/30 10:37:25;;;;;;;37.87;33.53;;;14.70;75.60;;;;;;5054023;28;20449;-75
2022/03/30 10:39:57;;;;;;;35.57;31.87;;;14.90;74.90;;;;;;5053746;28;20867;-75
2022/03/30 10:42:24;;;;;;;36.13;33.00;;;15.00;74.20;;;;;;5053938;28;20478;-75
2022/03/30 10:44:57;;;;;;;38.17;34.17;;;15.00;74.00;;;;;;5053776;28;20459;-75
2022/03/30 10:47:26;;;;;;;35.90;32.57;;;14.90;74.00;;;;;;5053892;28;21018;-75
2022/03/30 10:49:55;;;;;;;35.07;31.80;;;14.80;74.40;;;;;;5053592;28;21002;-75
2022/03/30 10:52:47;;;;;;;36.60;33.13;;;14.70;74.60;;;;;;5054004;28;20468;-75
2022/03/30 10:55:33;;;;;;;35.90;32.57;;;14.60;75.20;;;;;;5053580;28;20483;-75
2022/03/30 10:58:03;;;;;;;35.87;32.87;;;14.70;75.10;;;;;;5053880;28;20448;-75
2022/03/30 11:00:34;;;;;;;37.10;33.60;;;14.70;74.90;;;;;;5053273;28;20553;-75
2022/03/30 11:03:13;;;;;;;35.50;32.60;;;14.70;75.30;;;;;;5053461;28;20534;-75
2022/03/30 11:05:43;;;;;;;36.10;32.20;;;14.50;75.60;;;;;;5053113;28;20459;-75
2022/03/30 11:08:58;;;;;;;35.47;32.50;;;14.30;76.00;;;;;;5053429;28;20460;-75
2022/03/30 11:11:26;;;;;;;40.53;37.03;;;14.00;77.20;;;;;;5050643;28;20486;-75
2022/03/30 11:14:40;;;;;;;38.80;34.80;;;13.90;77.90;;;;;;5053098;28;20464;-75
2022/03/30 11:17:09;;;;;;;40.87;37.13;;;13.80;78.10;;;;;;5017910;28;20959;-75
2022/03/30 11:20:05;;;;;;;38.77;35.23;;;13.80;78.20;;;;;;5053058;28;20447;-75
2022/03/30 11:22:33;;;;;;;38.27;34.03;;;13.70;78.30;;;;;;5051379;28;20475;-75
2022/03/30 11:25:10;;;;;;;38.03;34.70;;;13.60;78.60;;;;;;5053102;28;20462;-75
2022/03/30 11:27:37;;;;;;;35.87;32.80;;;13.60;78.90;;;;;;5053057;28;20816;-75
2022/03/30 11:30:09;;;;;;;35.40;32.30;;;13.40;79.40;;;;;;5052814;28;20458;-75
2022/03/30 11:33:04;;;;;;;36.73;33.43;;;13.20;79.70;;;;;;5052912;28;20478;-75
2022/03/30 11:35:36;;;;;;;41.63;32.83;;;13.20;79.90;;;;;;5052584;28;20459;-75
2022/03/30 11:38:21;;;;;;;37.20;33.63;;;13.10;81.20;;;;;;5053043;28;20462;-75
2022/03/30 11:40:51;;;;;;;35.03;31.30;;;13.00;82.10;;;;;;5052597;28;21009;-75
2022/03/30 11:43:19;;;;;;;36.60;33.23;;;13.00;82.90;;;;;;5052769;28;20534;-75
2022/03/30 11:45:47;;;;;;;37.30;33.83;;;13.20;82.60;;;;;;5052783;28;20451;-75
2022/03/30 11:48:15;;;;;;;34.73;31.83;;;13.20;81.20;;;;;;5052577;28;20966;-75
2022/03/30 11:50:43;;;;;;;36.17;32.83;;;13.30;80.70;;;;;;5052589;28;20458;-75
2022/03/30 11:53:12;;;;;;;36.67;33.37;;;13.50;80.10;;;;;;5052610;28;20467;-75
2022/03/30 11:55:51;;;;;;;35.90;32.50;;;13.50;79.90;;;;;;5052521;28;20461;-75
2022/03/30 11:58:29;;;;;;;35.90;32.63;;;13.60;79.60;;;;;;5052516;28;20462;-75
2022/03/30 12:00:58;;;;;;;36.03;32.73;;;13.60;79.40;;;;;;5052032;28;20485;-75
2022/03/30 12:03:26;;;;;;;35.93;32.33;;;13.90;77.90;;;;;;5052423;28;20480;-75
2022/03/30 12:05:55;;;;;;;38.17;34.90;;;14.00;76.80;;;;;;5052401;28;20498;-75
2022/03/30 12:08:22;;;;;;;36.03;33.13;;;13.90;76.50;;;;;;5052400;28;20451;-75
2022/03/30 12:10:53;;;;;;;39.60;35.90;;;13.90;76.60;;;;;;5052386;28;20501;-75
2022/03/30 12:13:24;;;;;;;36.17;33.03;;;13.90;75.80;;;;;;5052578;28;20506;-74
2022/03/30 12:16:06;;;;;;;36.60;33.70;;;14.10;76.20;;;;;;5052279;28;20451;-74
2022/03/30 12:18:41;;;;;;;38.50;34.83;;;14.40;74.90;;;;;;5052250;28;20479;-72
2022/03/30 12:21:08;;;;;;;38.50;34.53;;;14.00;73.70;;;;;;5052206;28;20486;-72
2022/03/30 12:23:35;;;;;;;38.33;35.03;;;13.70;75.50;;;;;;5052177;28;20476;-72
2022/03/30 12:26:13;;;;;;;38.40;35.27;;;13.70;75.60;;;;;;5052364;28;20570;-74
2022/03/30 12:28:42;;;;;;;40.20;36.40;;;13.60;75.80;;;;;;5052529;28;20513;-75
2022/03/30 12:31:10;;;;;;;39.37;36.03;;;13.60;76.80;;;;;;5052124;28;20447;-75
2022/03/30 12:33:43;;;;;;;39.07;35.87;;;13.30;77.00;;;;;;5052183;28;20904;-74
2022/03/30 12:36:19;;;;;;;39.03;35.93;;;13.20;77.80;;;;;;5052208;28;20998;-75
2022/03/30 12:38:47;;;;;;;38.00;34.17;;;13.20;77.50;;;;;;5052378;28;20483;-75
2022/03/30 12:41:24;;;;;;;36.07;33.30;;;13.00;78.90;;;;;;5051893;28;20479;-75
2022/03/30 12:43:59;;;;;;;31.43;29.23;;;12.60;80.60;;;;;;5052183;28;20814;-75
2022/03/30 12:46:28;;;;;;;31.13;29.10;;;11.90;83.80;;;;;;5052201;28;20687;-75
2022/03/30 12:49:04;;;;;;;29.17;27.20;;;11.60;85.00;;;;;;5055090;28;20454;-74
2022/03/30 12:51:33;;;;;;;29.10;27.30;;;11.30;86.60;;;;;;5055922;28;20453;-75